Time;durP1;ratioP1;P1;durP2;ratioP2;P2;SDS_P1;SDS_P2;PMS_P1;PMS_P2;Temp;Humidity;BMP_temperature;BMP_pressure;BME280_temperature;BME280_humidity;BME280_pressure;Samples;Min_cycle;Max_cycle;Signal;HPM_P1;HPM_P2
2022/10/25 00:01:50;;;;;;;7.10;1.33;;;13.50;99.90;;;;;;4965197;28;20502;-80
2022/10/25 00:04:16;;;;;;;6.47;0.85;;;13.50;99.90;;;;;;4949359;28;20023;-79
2022/10/25 00:06:42;;;;;;;6.95;1.30;;;13.50;99.90;;;;;;4954656;28;20037;-79
2022/10/25 00:09:07;;;;;;;6.60;1.30;;;13.50;99.90;;;;;;4965239;28;20034;-80
2022/10/25 00:11:33;;;;;;;6.88;1.30;;;13.50;99.90;;;;;;4954005;28;20031;-79
2022/10/25 00:14:01;;;;;;;7.70;1.50;;;13.50;99.90;;;;;;4952314;28;20027;-79
2022/10/25 00:16:29;;;;;;;3.35;1.17;;;13.50;99.90;;;;;;4966078;28;20026;-79
2022/10/25 00:18:54;;;;;;;5.75;0.95;;;13.50;99.90;;;;;;4964938;28;20093;-79
2022/10/25 00:21:20;;;;;;;6.60;1.20;;;13.40;99.90;;;;;;4952319;28;20815;-79
2022/10/25 00:23:46;;;;;;;9.40;1.00;;;13.40;99.90;;;;;;4951323;28;20122;-79
2022/10/25 00:26:11;;;;;;;4.60;1.10;;;13.40;99.90;;;;;;4952976;28;20030;-79
2022/10/25 00:28:37;;;;;;;6.38;1.23;;;13.40;99.90;;;;;;4969034;28;20638;-79
2022/10/25 00:31:04;;;;;;;4.25;1.50;;;13.40;99.90;;;;;;4963939;28;20406;-79
2022/10/25 00:33:33;;;;;;;8.77;1.80;;;13.40;99.90;;;;;;4954522;28;20499;-79
2022/10/25 00:36:19;;;;;;;6.15;1.05;;;13.40;99.90;;;;;;4970037;28;20141;-79
2022/10/25 00:38:45;;;;;;;10.65;1.58;;;13.40;99.90;;;;;;4968326;28;20050;-79
2022/10/25 00:41:13;;;;;;;7.40;1.70;;;13.40;99.90;;;;;;4947109;28;20618;-79
2022/10/25 00:43:44;;;;;;;10.07;1.55;;;13.40;99.90;;;;;;4949611;28;20116;-80
2022/10/25 00:46:27;;;;;;;6.63;1.42;;;13.40;99.90;;;;;;4948557;28;20554;-79
2022/10/25 00:49:09;;;;;;;6.45;1.27;;;13.40;99.90;;;;;;4983425;28;20469;-79
2022/10/25 00:51:37;;;;;;;3.03;0.90;;;13.50;99.90;;;;;;4951106;28;20039;-79
2022/10/25 00:54:03;;;;;;;3.40;1.10;;;13.50;99.90;;;;;;4968849;28;20049;-79
2022/10/25 00:56:31;;;;;;;3.67;1.00;;;13.50;99.90;;;;;;4966058;28;20455;-79
2022/10/25 00:58:59;;;;;;;3.38;0.77;;;13.50;99.90;;;;;;4952152;28;20048;-80
2022/10/25 01:01:25;;;;;;;8.60;1.40;;;13.50;99.90;;;;;;4949022;28;20065;-79
2022/10/25 01:03:51;;;;;;;8.18;1.10;;;13.60;99.90;;;;;;4946417;28;20058;-79
2022/10/25 01:06:22;;;;;;;4.03;1.00;;;13.60;99.90;;;;;;4963270;28;20453;-78
2022/10/25 01:08:47;;;;;;;9.82;1.77;;;13.60;99.90;;;;;;4964560;28;20118;-80
2022/10/25 01:11:13;;;;;;;4.35;0.82;;;13.50;99.90;;;;;;4950438;28;20105;-77
2022/10/25 01:13:38;;;;;;;8.60;1.10;;;13.50;99.90;;;;;;4963002;28;20400;-78
2022/10/25 01:16:31;;;;;;;4.45;0.90;;;13.60;99.90;;;;;;4967892;28;20552;-78
2022/10/25 01:19:07;;;;;;;6.63;1.33;;;13.50;99.90;;;;;;4950695;28;20058;-80
2022/10/25 01:21:41;;;;;;;;;;;13.50;99.90;;;;;;4980021;28;20129;-79
2022/10/25 01:24:10;;;;;;;4.80;0.80;;;13.50;99.90;;;;;;4962582;28;20416;-80
2022/10/25 01:27:30;;;;;;;5.63;1.20;;;13.50;99.90;;;;;;4979360;28;20122;-79
2022/10/25 01:30:03;;;;;;;7.22;1.30;;;13.60;99.90;;;;;;4884522;29;20041;-80
2022/10/25 01:32:38;;;;;;;5.93;1.48;;;13.60;99.90;;;;;;4966592;28;20390;-80
2022/10/25 01:35:18;;;;;;;3.88;0.82;;;13.60;99.90;;;;;;4963077;28;20508;-77
2022/10/25 01:37:55;;;;;;;3.20;0.90;;;13.70;99.90;;;;;;4961291;28;20041;-78
2022/10/25 01:40:28;;;;;;;3.55;1.55;;;13.60;99.90;;;;;;4951689;28;20034;-79
2022/10/25 01:43:01;;;;;;;3.00;0.82;;;13.60;99.90;;;;;;4964029;28;20030;-78
2022/10/25 01:45:32;;;;;;;6.60;1.27;;;13.70;99.90;;;;;;4964873;28;20133;-78
2022/10/25 01:48:00;;;;;;;6.97;1.20;;;13.70;99.90;;;;;;4964003;28;20550;-78
2022/10/25 01:50:28;;;;;;;3.05;1.58;;;13.70;99.90;;;;;;4961453;28;20030;-77
2022/10/25 01:52:53;;;;;;;8.32;1.50;;;13.70;99.90;;;;;;4945747;28;20483;-78
2022/10/25 01:55:19;;;;;;;10.13;1.08;;;13.70;99.90;;;;;;4963156;28;20074;-78
2022/10/25 01:58:13;;;;;;;6.25;1.05;;;13.70;99.90;;;;;;4948854;28;20126;-78
2022/10/25 02:00:54;;;;;;;3.67;1.20;;;13.70;99.90;;;;;;4970128;28;20038;-79
2022/10/25 02:03:31;;;;;;;10.27;2.33;;;13.70;99.90;;;;;;4964604;28;20066;-79
2022/10/25 02:06:08;;;;;;;6.15;1.08;;;13.70;99.90;;;;;;4952053;28;20041;-78
2022/10/25 02:08:40;;;;;;;4.97;1.15;;;13.80;99.90;;;;;;4963249;28;20501;-79
2022/10/25 02:11:27;;;;;;;2.78;0.88;;;13.70;99.90;;;;;;4966050;28;20033;-79
2022/10/25 02:14:06;;;;;;;2.70;0.90;;;13.80;99.90;;;;;;4960932;28;20118;-79
2022/10/25 02:16:42;;;;;;;6.75;1.30;;;13.70;99.90;;;;;;4967608;28;20034;-78
2022/10/25 02:19:10;;;;;;;5.35;1.40;;;13.70;99.90;;;;;;4962391;28;20073;-78
2022/10/25 02:21:37;;;;;;;4.15;0.90;;;13.70;99.90;;;;;;4950785;28;20039;-79
2022/10/25 02:24:08;;;;;;;5.47;1.30;;;13.70;99.90;;;;;;4948950;28;20041;-78
2022/10/25 02:26:34;;;;;;;8.02;1.20;;;13.80;99.90;;;;;;4948578;28;20486;-79
2022/10/25 02:28:59;;;;;;;8.48;1.20;;;13.80;99.90;;;;;;4950998;28;20045;-79
2022/10/25 02:31:25;;;;;;;11.02;0.80;;;13.80;99.90;;;;;;4966053;28;20047;-78
2022/10/25 02:33:51;;;;;;;6.28;1.35;;;13.80;99.90;;;;;;4951694;28;20088;-78
2022/10/25 02:36:21;;;;;;;6.18;1.00;;;13.80;99.90;;;;;;4950739;28;20027;-78
2022/10/25 02:38:47;;;;;;;7.72;1.02;;;13.80;99.90;;;;;;4963364;28;20038;-78
2022/10/25 02:41:12;;;;;;;10.02;0.93;;;13.80;99.90;;;;;;4943959;28;20031;-79
2022/10/25 02:43:38;;;;;;;3.80;1.10;;;13.80;99.90;;;;;;4951602;28;20093;-79
2022/10/25 02:46:07;;;;;;;3.83;1.23;;;13.90;99.90;;;;;;4962045;28;20176;-78
2022/10/25 02:48:33;;;;;;;8.75;1.45;;;13.80;99.90;;;;;;4962805;28;20073;-78
2022/10/25 02:50:59;;;;;;;6.90;1.25;;;13.90;99.90;;;;;;4950564;28;20030;-78
2022/10/25 02:53:24;;;;;;;6.55;1.30;;;13.90;99.90;;;;;;4966900;28;20105;-79
2022/10/25 02:55:59;;;;;;;7.70;1.42;;;13.80;99.90;;;;;;4965479;28;20486;-77
2022/10/25 02:58:24;;;;;;;6.22;1.00;;;13.80;99.90;;;;;;4948986;28;20047;-77
2022/10/25 03:00:50;;;;;;;9.60;1.77;;;13.80;99.90;;;;;;4979472;28;20486;-77
2022/10/25 03:03:15;;;;;;;8.38;1.27;;;13.80;99.90;;;;;;4929344;28;20030;-77
2022/10/25 03:05:43;;;;;;;6.43;1.13;;;13.90;99.90;;;;;;4943964;28;20052;-77
2022/10/25 03:08:09;;;;;;;3.83;1.00;;;13.90;99.90;;;;;;4947053;28;20128;-77
2022/10/25 03:10:36;;;;;;;7.15;1.23;;;13.80;99.90;;;;;;4961118;28;20074;-77
2022/10/25 03:13:01;;;;;;;8.07;1.80;;;13.90;99.90;;;;;;4949339;28;20035;-77
2022/10/25 03:15:27;;;;;;;7.05;1.10;;;13.90;99.90;;;;;;4951684;28;20045;-77
2022/10/25 03:17:52;;;;;;;7.63;1.30;;;13.90;99.90;;;;;;4948218;28;20057;-77
2022/10/25 03:20:18;;;;;;;9.50;1.25;;;13.80;99.90;;;;;;4960928;28;20030;-77
2022/10/25 03:22:43;;;;;;;4.70;1.05;;;13.90;99.90;;;;;;4946221;28;20037;-77
2022/10/25 03:25:09;;;;;;;8.43;1.40;;;13.90;99.90;;;;;;4977791;28;20042;-77
2022/10/25 03:27:34;;;;;;;5.28;0.82;;;13.80;99.90;;;;;;4950898;28;20038;-77
2022/10/25 03:30:00;;;;;;;4.47;1.10;;;13.90;99.90;;;;;;4960636;28;20041;-76
2022/10/25 03:32:26;;;;;;;4.53;1.27;;;13.80;99.90;;;;;;4945094;28;20031;-77
2022/10/25 03:34:51;;;;;;;7.53;1.20;;;13.90;99.90;;;;;;4946403;28;20110;-77
2022/10/25 03:37:17;;;;;;;9.90;1.40;;;13.90;99.90;;;;;;4946971;28;20096;-76
2022/10/25 03:39:42;;;;;;;8.40;1.67;;;13.90;99.90;;;;;;4950890;28;20185;-76
2022/10/25 03:42:08;;;;;;;9.35;1.20;;;13.80;99.90;;;;;;4961223;28;20030;-76
2022/10/25 03:44:33;;;;;;;5.40;1.67;;;13.90;99.90;;;;;;4951451;28;20033;-77
2022/10/25 03:46:59;;;;;;;2.42;0.82;;;13.90;99.90;;;;;;4954891;28;20078;-77
2022/10/25 03:49:25;;;;;;;9.95;1.50;;;13.80;99.90;;;;;;4948527;28;20070;-77
2022/10/25 03:51:51;;;;;;;8.35;1.38;;;13.80;99.90;;;;;;4967499;28;20022;-78
2022/10/25 03:54:16;;;;;;;6.03;1.50;;;13.80;99.90;;;;;;4981369;28;20516;-78
2022/10/25 03:56:42;;;;;;;3.53;0.93;;;13.80;99.90;;;;;;4941157;28;20030;-77
2022/10/25 03:59:07;;;;;;;7.97;1.02;;;13.80;99.90;;;;;;4982117;28;20069;-77
2022/10/25 04:01:33;;;;;;;5.00;0.70;;;13.80;99.90;;;;;;4968641;28;20443;-77
2022/10/25 04:03:58;;;;;;;7.97;1.30;;;13.80;99.90;;;;;;4956443;28;20084;-77
2022/10/25 04:06:24;;;;;;;4.97;1.05;;;13.80;99.90;;;;;;4951604;28;20038;-77
2022/10/25 04:08:50;;;;;;;12.68;1.58;;;13.80;99.90;;;;;;4954980;28;20454;-77
2022/10/25 04:11:15;;;;;;;7.53;1.20;;;13.70;99.90;;;;;;4968838;28;20062;-78
2022/10/25 04:13:41;;;;;;;5.15;0.80;;;13.70;99.90;;;;;;4965801;28;20461;-78
2022/10/25 04:16:07;;;;;;;6.15;1.20;;;13.60;99.90;;;;;;4967733;28;20060;-78
2022/10/25 04:18:32;;;;;;;7.50;1.23;;;13.60;99.90;;;;;;4966248;28;20114;-78
2022/10/25 04:20:58;;;;;;;6.63;1.25;;;13.60;99.90;;;;;;4951546;28;20034;-77
2022/10/25 04:23:24;;;;;;;6.00;1.42;;;13.70;99.90;;;;;;4967386;28;20053;-78
2022/10/25 04:25:49;;;;;;;12.25;1.52;;;13.60;99.90;;;;;;4965127;28;20077;-79
2022/10/25 04:28:15;;;;;;;7.72;1.02;;;13.60;99.90;;;;;;4949867;28;20085;-78
2022/10/25 04:30:40;;;;;;;5.47;0.75;;;13.60;99.90;;;;;;4963208;28;20104;-78
2022/10/25 04:33:06;;;;;;;8.75;1.25;;;13.60;99.90;;;;;;4953081;28;20049;-78
2022/10/25 04:35:31;;;;;;;7.90;1.05;;;13.50;99.90;;;;;;4962699;28;20118;-79
2022/10/25 04:37:57;;;;;;;5.10;1.05;;;13.50;99.90;;;;;;4965099;28;20056;-78
2022/10/25 04:40:23;;;;;;;11.45;1.20;;;13.50;99.90;;;;;;4984057;28;20141;-78
2022/10/25 04:42:48;;;;;;;5.13;1.02;;;13.50;99.90;;;;;;4947418;28;20034;-80
2022/10/25 04:45:14;;;;;;;5.32;1.23;;;13.50;99.90;;;;;;4934306;28;20038;-78
2022/10/25 04:47:39;;;;;;;14.18;1.25;;;13.50;99.90;;;;;;4963458;28;20441;-78
2022/10/25 04:50:05;;;;;;;5.28;1.38;;;13.60;99.90;;;;;;4981820;28;20042;-77
2022/10/25 04:52:31;;;;;;;6.28;1.60;;;13.60;99.90;;;;;;4962666;28;20094;-78
2022/10/25 04:54:57;;;;;;;7.53;1.63;;;13.60;99.90;;;;;;4952920;28;20027;-78
2022/10/25 04:57:22;;;;;;;3.78;1.00;;;13.60;99.90;;;;;;4932200;28;20046;-78
2022/10/25 04:59:48;;;;;;;6.35;1.02;;;13.60;99.90;;;;;;4962089;28;20038;-77
2022/10/25 05:02:14;;;;;;;5.35;1.10;;;13.50;99.90;;;;;;4947408;28;20491;-78
2022/10/25 05:04:39;;;;;;;5.60;0.85;;;13.60;99.90;;;;;;4967331;28;20042;-78
2022/10/25 05:07:05;;;;;;;5.25;1.13;;;13.60;99.90;;;;;;4952830;28;20050;-78
2022/10/25 05:09:30;;;;;;;5.00;1.05;;;13.60;99.90;;;;;;4953433;28;20141;-78
2022/10/25 05:11:56;;;;;;;5.97;1.10;;;13.60;99.90;;;;;;4952977;28;20116;-78
2022/10/25 05:14:21;;;;;;;8.68;1.35;;;13.60;99.90;;;;;;4963207;28;20422;-78
2022/10/25 05:16:47;;;;;;;6.32;0.93;;;13.70;99.90;;;;;;4944188;28;20057;-78
2022/10/25 05:19:12;;;;;;;2.00;1.20;;;13.70;99.90;;;;;;4961935;28;20035;-78
2022/10/25 05:21:38;;;;;;;6.88;1.02;;;13.70;99.90;;;;;;4965237;28;20702;-76
2022/10/25 05:24:03;;;;;;;5.88;1.10;;;13.70;99.90;;;;;;4981107;28;20057;-77
2022/10/25 05:26:29;;;;;;;5.90;1.42;;;13.70;99.90;;;;;;4960143;28;20035;-76
2022/10/25 05:28:55;;;;;;;4.95;0.95;;;13.60;99.90;;;;;;4954804;28;20062;-76
2022/10/25 05:31:25;;;;;;;5.05;1.33;;;13.60;99.90;;;;;;4950705;28;20038;-77
2022/10/25 05:33:52;;;;;;;5.63;0.80;;;13.60;99.90;;;;;;4944745;28;20778;-76
2022/10/25 05:36:18;;;;;;;3.80;0.80;;;13.60;99.90;;;;;;4960199;28;20057;-76
2022/10/25 05:38:44;;;;;;;5.63;1.10;;;13.50;99.90;;;;;;4947755;28;20058;-77
2022/10/25 05:41:10;;;;;;;5.32;1.15;;;13.60;99.90;;;;;;4963778;28;20702;-76
2022/10/25 05:43:36;;;;;;;5.53;1.50;;;13.60;99.90;;;;;;4965672;28;20038;-76
2022/10/25 05:46:09;;;;;;;8.30;1.67;;;13.60;99.90;;;;;;4951380;28;20679;-76
2022/10/25 05:48:35;;;;;;;7.25;1.27;;;13.60;99.90;;;;;;4951894;28;20497;-77
2022/10/25 05:51:10;;;;;;;7.43;1.42;;;13.60;99.90;;;;;;4947297;28;20038;-76
2022/10/25 05:53:36;;;;;;;11.13;1.35;;;13.60;99.90;;;;;;4980923;28;20057;-77
2022/10/25 05:56:01;;;;;;;7.60;1.00;;;13.60;99.90;;;;;;4964620;28;20039;-76
2022/10/25 05:58:27;;;;;;;4.80;1.13;;;13.60;99.90;;;;;;4963951;28;20405;-77
2022/10/25 06:00:53;;;;;;;4.75;1.45;;;13.60;99.90;;;;;;4929211;28;20375;-76
2022/10/25 06:03:18;;;;;;;3.55;0.85;;;13.60;99.90;;;;;;4948073;28;20105;-77
2022/10/25 06:05:44;;;;;;;7.65;1.58;;;13.60;99.90;;;;;;4960310;28;20040;-77
2022/10/25 06:08:09;;;;;;;5.95;1.50;;;13.60;99.90;;;;;;4947942;28;20062;-76
2022/10/25 06:10:35;;;;;;;4.75;1.05;;;13.60;99.90;;;;;;4963672;28;20470;-77
2022/10/25 06:13:00;;;;;;;5.18;1.70;;;13.60;99.90;;;;;;4963005;28;20402;-77
2022/10/25 06:15:26;;;;;;;7.85;1.65;;;13.60;99.90;;;;;;4967732;28;20038;-77
2022/10/25 06:17:52;;;;;;;4.60;1.67;;;13.60;99.90;;;;;;4962962;28;20502;-76
2022/10/25 06:20:18;;;;;;;6.50;1.73;;;13.60;99.90;;;;;;4948683;28;20030;-77
2022/10/25 06:22:44;;;;;;;13.40;1.52;;;13.70;99.90;;;;;;4960621;28;20471;-78
2022/10/25 06:25:09;;;;;;;5.75;1.58;;;13.70;99.90;;;;;;4977653;28;20027;-77
2022/10/25 06:27:35;;;;;;;4.72;1.58;;;13.70;99.90;;;;;;4965555;28;20038;-77
2022/10/25 06:30:00;;;;;;;10.82;1.60;;;13.70;99.90;;;;;;4962946;28;20026;-76
2022/10/25 06:32:27;;;;;;;7.75;2.05;;;13.70;99.90;;;;;;4951561;28;20514;-77
2022/10/25 06:34:52;;;;;;;2.25;0.60;;;13.70;99.90;;;;;;4947327;28;20031;-77
2022/10/25 06:37:18;;;;;;;7.80;1.50;;;13.70;99.90;;;;;;4936995;28;20054;-77
2022/10/25 06:39:44;;;;;;;4.03;1.20;;;13.70;99.90;;;;;;4962412;28;20077;-77
2022/10/25 06:42:10;;;;;;;8.30;1.73;;;13.70;99.90;;;;;;4959816;28;20031;-77
2022/10/25 06:44:36;;;;;;;8.32;1.60;;;13.80;99.90;;;;;;4965708;28;20041;-77
2022/10/25 06:47:02;;;;;;;6.15;1.48;;;13.70;99.90;;;;;;4966889;28;20035;-77
2022/10/25 06:49:29;;;;;;;7.10;1.67;;;13.70;99.90;;;;;;4949752;28;20444;-77
2022/10/25 06:51:54;;;;;;;7.25;1.40;;;13.70;99.90;;;;;;4980587;28;20057;-76
2022/10/25 06:54:20;;;;;;;6.88;1.60;;;13.70;99.90;;;;;;4932369;28;20080;-77
2022/10/25 06:56:45;;;;;;;6.68;2.53;;;13.70;99.90;;;;;;4951359;28;20038;-77
2022/10/25 06:59:11;;;;;;;2.85;0.77;;;13.70;99.90;;;;;;4964983;28;20137;-76
2022/10/25 07:01:36;;;;;;;7.63;1.90;;;13.60;99.90;;;;;;4964563;28;20446;-76
2022/10/25 07:04:02;;;;;;;6.28;1.60;;;13.60;99.90;;;;;;4958481;28;20070;-77
2022/10/25 07:06:34;;;;;;;8.30;1.48;;;13.60;99.90;;;;;;4949045;28;20042;-77
2022/10/25 07:09:00;;;;;;;6.80;1.45;;;13.60;99.90;;;;;;4947318;28;20035;-77
2022/10/25 07:11:27;;;;;;;9.40;1.58;;;13.60;99.90;;;;;;4946391;28;20034;-77
2022/10/25 07:13:52;;;;;;;7.93;1.42;;;13.70;99.90;;;;;;4966075;28;20034;-76
2022/10/25 07:16:19;;;;;;;2.92;0.77;;;13.70;99.90;;;;;;4965225;28;20046;-76
2022/10/25 07:18:44;;;;;;;5.50;1.63;;;13.70;99.90;;;;;;4948237;28;20046;-77
2022/10/25 07:21:13;;;;;;;6.95;1.35;;;13.70;99.90;;;;;;4949482;28;20037;-76
2022/10/25 07:23:41;;;;;;;4.00;1.27;;;13.70;99.90;;;;;;4968290;28;20049;-77
2022/10/25 07:26:30;;;;;;;5.85;1.02;;;13.80;99.90;;;;;;4949045;28;20074;-77
2022/10/25 07:28:56;;;;;;;10.15;1.58;;;13.80;99.90;;;;;;4951518;28;20085;-77
2022/10/25 07:31:25;;;;;;;3.10;0.93;;;13.70;99.90;;;;;;4955088;28;20049;-76
2022/10/25 07:33:51;;;;;;;3.17;1.35;;;13.70;99.90;;;;;;4980873;28;20614;-76
2022/10/25 07:36:17;;;;;;;1.92;0.98;;;13.80;99.90;;;;;;4951254;28;20489;-76
2022/10/25 07:38:43;;;;;;;4.05;1.77;;;13.70;99.90;;;;;;4948201;28;20042;-77
2022/10/25 07:41:08;;;;;;;5.65;1.90;;;13.70;99.90;;;;;;4952526;28;20402;-76
2022/10/25 07:43:34;;;;;;;7.25;1.25;;;13.70;99.90;;;;;;4950138;28;20133;-76
2022/10/25 07:46:00;;;;;;;7.28;1.65;;;13.70;99.90;;;;;;4950788;28;20117;-76
2022/10/25 07:48:26;;;;;;;6.13;1.73;;;13.80;99.90;;;;;;4947695;28;20038;-76
2022/10/25 07:50:52;;;;;;;6.32;0.90;;;13.80;99.90;;;;;;4966703;28;20573;-76
2022/10/25 07:53:17;;;;;;;16.20;2.00;;;13.90;99.90;;;;;;4951380;28;20485;-76
2022/10/25 07:55:52;;;;;;;6.85;1.42;;;14.00;99.90;;;;;;4965984;28;20102;-77
2022/10/25 07:58:18;;;;;;;9.18;2.22;;;14.00;99.90;;;;;;4963529;28;20070;-77
2022/10/25 08:00:44;;;;;;;4.93;1.38;;;14.00;99.90;;;;;;4963723;28;20050;-77
2022/10/25 08:03:09;;;;;;;14.50;1.85;;;14.00;99.90;;;;;;4966664;28;20033;-77
2022/10/25 08:05:35;;;;;;;6.43;1.42;;;14.10;99.90;;;;;;4951861;28;20041;-78
2022/10/25 08:08:00;;;;;;;9.85;1.38;;;14.00;99.90;;;;;;4963521;28;20093;-78
2022/10/25 08:10:26;;;;;;;9.65;2.03;;;14.10;99.90;;;;;;4964550;28;20045;-77
2022/10/25 08:12:53;;;;;;;6.53;2.13;;;14.20;99.90;;;;;;4966530;28;20433;-78
2022/10/25 08:15:18;;;;;;;8.38;2.45;;;14.20;99.90;;;;;;4964422;28;20518;-77
2022/10/25 08:17:44;;;;;;;3.03;1.55;;;14.20;99.90;;;;;;4965741;28;20121;-78
2022/10/25 08:20:10;;;;;;;9.07;2.00;;;14.30;99.90;;;;;;4966239;28;20018;-77
2022/10/25 08:22:35;;;;;;;6.75;2.25;;;14.40;99.90;;;;;;4982000;28;20046;-77
2022/10/25 08:25:03;;;;;;;3.58;1.40;;;14.50;99.90;;;;;;4949208;28;20019;-78
2022/10/25 08:27:29;;;;;;;1.33;0.88;;;14.50;99.90;;;;;;4968767;28;20034;-77
2022/10/25 08:29:55;;;;;;;8.20;2.70;;;14.60;99.90;;;;;;4953857;28;20030;-77
2022/10/25 08:32:20;;;;;;;6.50;1.67;;;14.80;99.90;;;;;;4950757;28;20030;-78
2022/10/25 08:34:46;;;;;;;1.98;0.82;;;14.80;99.90;;;;;;4965304;28;20045;-77
2022/10/25 08:37:13;;;;;;;4.95;0.93;;;14.90;99.90;;;;;;4981856;28;20508;-78
2022/10/25 08:39:38;;;;;;;4.50;1.60;;;15.00;99.90;;;;;;4952909;28;20600;-77
2022/10/25 08:42:04;;;;;;;8.93;1.65;;;15.00;99.90;;;;;;4949087;28;20026;-78
2022/10/25 08:44:51;;;;;;;5.78;1.83;;;15.10;99.90;;;;;;4955639;28;20068;-77
2022/10/25 08:47:32;;;;;;;4.72;1.00;;;15.10;99.90;;;;;;4967348;28;20030;-78
2022/10/25 08:50:06;;;;;;;4.55;1.73;;;15.20;99.90;;;;;;4950355;28;20030;-77
2022/10/25 08:52:36;;;;;;;4.32;1.50;;;15.20;99.90;;;;;;4964124;28;20117;-77
2022/10/25 08:55:03;;;;;;;3.42;1.23;;;15.30;99.90;;;;;;4951619;28;20034;-77
2022/10/25 08:57:33;;;;;;;5.80;1.23;;;15.30;99.90;;;;;;4947566;28;20065;-77
2022/10/25 09:00:09;;;;;;;0.65;0.55;;;15.30;99.90;;;;;;4966710;28;20561;-77
2022/10/25 09:02:51;;;;;;;3.83;1.45;;;15.30;99.90;;;;;;4953728;28;20038;-77
2022/10/25 09:05:36;;;;;;;6.78;1.67;;;15.30;99.90;;;;;;4948185;28;20031;-78
2022/10/25 09:08:14;;;;;;;4.47;0.68;;;15.30;99.90;;;;;;4964593;28;20035;-78
2022/10/25 09:10:57;;;;;;;6.22;0.93;;;15.30;99.90;;;;;;4980508;28;20508;-77
2022/10/25 09:13:32;;;;;;;4.97;1.00;;;15.30;99.90;;;;;;4979195;28;20088;-77
2022/10/25 09:16:18;;;;;;;4.07;1.30;;;15.40;99.90;;;;;;4955222;28;20023;-77
2022/10/25 09:18:58;;;;;;;3.65;1.10;;;15.40;99.90;;;;;;4979908;28;20038;-77
2022/10/25 09:22:03;;;;;;;8.00;1.48;;;15.50;99.90;;;;;;4966338;28;20041;-78
2022/10/25 09:24:33;;;;;;;1.95;0.70;;;15.60;99.90;;;;;;4949021;28;20480;-77
2022/10/25 09:27:05;;;;;;;4.78;0.80;;;15.70;99.90;;;;;;4962381;28;20113;-77
2022/10/25 09:29:53;;;;;;;9.63;1.73;;;15.70;99.90;;;;;;4947224;28;20035;-77
2022/10/25 09:32:35;;;;;;;3.20;0.73;;;15.80;99.90;;;;;;4949190;28;20062;-77
2022/10/25 09:35:01;;;;;;;8.65;1.30;;;16.00;99.90;;;;;;4952002;28;20490;-77
2022/10/25 09:37:40;;;;;;;8.07;1.45;;;16.00;99.90;;;;;;4967735;28;20034;-77
2022/10/25 09:40:11;;;;;;;3.45;1.23;;;16.10;99.90;;;;;;4960229;28;20098;-77
2022/10/25 09:42:38;;;;;;;2.10;1.00;;;16.20;99.90;;;;;;4936914;28;20088;-78
2022/10/25 09:45:06;;;;;;;4.88;1.25;;;16.20;99.90;;;;;;4951827;28;20035;-76
2022/10/25 09:47:50;;;;;;;6.38;1.30;;;16.30;99.90;;;;;;4951569;28;20034;-77
2022/10/25 09:50:25;;;;;;;6.65;1.70;;;16.20;99.90;;;;;;4960479;28;20524;-77
2022/10/25 09:53:13;;;;;;;4.00;1.02;;;16.40;99.90;;;;;;4953160;28;20038;-77
2022/10/25 09:55:44;;;;;;;7.40;1.70;;;16.30;99.90;;;;;;4961232;28;20834;-77
2022/10/25 09:58:20;;;;;;;3.70;1.25;;;16.30;99.90;;;;;;4978944;28;20041;-77
2022/10/25 10:00:46;;;;;;;;;;;16.50;99.90;;;;;;4952327;28;20048;-77
2022/10/25 10:03:12;;;;;;;2.53;1.10;;;16.50;99.90;;;;;;4962101;28;19910;-77
2022/10/25 10:05:43;;;;;;;6.68;1.38;;;16.50;99.90;;;;;;4951130;28;20101;-77
2022/10/25 10:08:09;;;;;;;1.42;0.60;;;16.60;99.90;;;;;;4945826;28;20046;-77
2022/10/25 10:10:35;;;;;;;8.65;1.42;;;16.70;99.90;;;;;;4963134;28;20055;-77
2022/10/25 10:13:04;;;;;;;5.50;1.20;;;16.70;99.90;;;;;;4942794;28;20033;-76
2022/10/25 10:15:34;;;;;;;6.50;1.02;;;16.80;99.90;;;;;;4941984;28;20112;-77
2022/10/25 10:18:22;;;;;;;5.35;1.40;;;16.80;99.90;;;;;;4958685;28;20045;-77
2022/10/25 10:21:10;;;;;;;7.00;1.17;;;17.00;99.90;;;;;;4957926;28;20034;-77
2022/10/25 10:23:54;;;;;;;6.15;1.42;;;16.90;99.90;;;;;;4962231;28;20714;-77
2022/10/25 10:26:25;;;;;;;5.60;1.40;;;16.90;99.90;;;;;;4961029;28;20712;-77
2022/10/25 10:29:00;;;;;;;5.80;1.60;;;17.00;99.90;;;;;;4974878;28;20026;-77
2022/10/25 10:31:35;;;;;;;5.93;1.40;;;17.00;99.90;;;;;;4962227;28;20060;-77
2022/10/25 10:34:01;;;;;;;3.03;1.33;;;17.00;99.90;;;;;;4977090;28;20031;-76
2022/10/25 10:36:28;;;;;;;5.88;1.60;;;17.00;99.90;;;;;;4948308;28;20031;-76
2022/10/25 10:38:53;;;;;;;5.05;1.45;;;17.00;99.90;;;;;;4960144;28;20129;-77
2022/10/25 10:41:27;;;;;;;8.48;2.45;;;16.90;99.90;;;;;;4952483;28;20122;-77
2022/10/25 10:44:24;;;;;;;10.38;1.38;;;17.00;99.90;;;;;;4965069;28;20034;-77
2022/10/25 10:46:50;;;;;;;3.75;1.10;;;17.20;99.90;;;;;;4910694;28;20093;-76
2022/10/25 10:49:15;;;;;;;3.42;0.90;;;17.30;99.90;;;;;;4947845;28;20113;-76
2022/10/25 10:51:42;;;;;;;4.85;1.70;;;17.40;99.90;;;;;;4964351;28;20026;-76
2022/10/25 10:54:13;;;;;;;7.97;1.90;;;17.30;99.90;;;;;;4945207;28;20027;-77
2022/10/25 10:56:38;;;;;;;7.00;1.45;;;17.50;99.90;;;;;;4953048;28;20121;-76
2022/10/25 10:59:04;;;;;;;3.00;0.98;;;17.50;99.90;;;;;;4948322;28;20121;-76
2022/10/25 11:01:32;;;;;;;6.32;1.23;;;17.50;99.90;;;;;;4964296;28;20062;-77
2022/10/25 11:03:58;;;;;;;8.43;1.25;;;17.60;99.90;;;;;;4965534;28;20030;-77
2022/10/25 11:06:31;;;;;;;6.90;1.45;;;17.60;99.90;;;;;;4949114;28;20035;-76
2022/10/25 11:09:14;;;;;;;5.72;1.15;;;17.60;99.90;;;;;;4946975;28;20122;-76
2022/10/25 11:11:40;;;;;;;2.38;0.88;;;17.60;99.90;;;;;;4964198;28;20034;-77
2022/10/25 11:14:11;;;;;;;4.30;0.93;;;17.60;99.90;;;;;;4949076;28;20498;-76
2022/10/25 11:16:45;;;;;;;2.60;1.25;;;17.40;99.90;;;;;;4955247;28;20117;-76
2022/10/25 11:19:30;;;;;;;5.53;1.20;;;17.50;99.90;;;;;;4951402;28;20068;-76
2022/10/25 11:22:26;;;;;;;2.90;0.93;;;17.50;99.90;;;;;;4969449;28;20037;-76
2022/10/25 11:25:13;;;;;;;4.30;1.63;;;17.60;99.90;;;;;;4964378;28;20042;-76
2022/10/25 11:27:51;;;;;;;2.13;0.75;;;17.60;99.90;;;;;;4966389;28;20266;-76
2022/10/25 11:30:18;;;;;;;6.93;1.30;;;17.70;99.90;;;;;;4290950;28;10000457;-76
2022/10/25 11:33:08;;;;;;;2.67;1.15;;;17.80;99.90;;;;;;4962784;28;20200;-76
2022/10/25 11:35:58;;;;;;;3.80;1.08;;;17.90;99.90;;;;;;4964381;28;20035;-76
2022/10/25 11:38:46;;;;;;;4.82;1.00;;;17.90;99.90;;;;;;4968769;28;20510;-75
2022/10/25 11:41:20;;;;;;;2.65;1.00;;;17.90;99.90;;;;;;4977846;28;20418;-77
2022/10/25 11:44:09;;;;;;;2.08;0.85;;;18.00;99.90;;;;;;4977394;28;20620;-76
2022/10/25 11:46:40;;;;;;;3.33;1.20;;;18.00;99.90;;;;;;4960672;28;20205;-76
2022/10/25 11:49:27;;;;;;;2.10;1.10;;;18.10;99.90;;;;;;4967142;28;20468;-75
2022/10/25 11:51:58;;;;;;;1.85;0.70;;;18.10;99.90;;;;;;4966240;28;20727;-75
2022/10/25 11:54:30;;;;;;;4.00;1.02;;;18.20;99.90;;;;;;4964835;28;20038;-77
2022/10/25 11:57:22;;;;;;;1.30;0.55;;;18.10;99.90;;;;;;4962131;28;20502;-77
2022/10/25 12:00:05;;;;;;;3.28;0.90;;;18.00;99.90;;;;;;4962081;28;20050;-77
2022/10/25 12:02:57;;;;;;;4.57;1.00;;;18.20;99.90;;;;;;4948616;28;20119;-77
2022/10/25 12:05:41;;;;;;;3.90;0.75;;;18.50;99.90;;;;;;4942257;28;20513;-77
2022/10/25 12:08:25;;;;;;;1.88;0.60;;;18.60;99.90;;;;;;4979683;28;20066;-78
2022/10/25 12:11:13;;;;;;;4.28;1.05;;;18.70;99.90;;;;;;4980678;28;20038;-77
2022/10/25 12:13:46;;;;;;;2.88;0.82;;;18.80;99.90;;;;;;4979097;28;20566;-78
2022/10/25 12:16:14;;;;;;;3.83;0.82;;;18.90;99.90;;;;;;4963232;28;20080;-77
2022/10/25 12:18:48;;;;;;;3.55;1.00;;;18.90;99.90;;;;;;4962158;28;20042;-77
2022/10/25 12:21:21;;;;;;;3.45;0.68;;;18.90;99.90;;;;;;4926949;28;20039;-77
2022/10/25 12:23:49;;;;;;;4.15;0.85;;;19.00;99.90;;;;;;4962779;28;20132;-78
2022/10/25 12:26:20;;;;;;;5.43;1.00;;;19.20;99.90;;;;;;4948655;28;20039;-77
2022/10/25 12:28:49;;;;;;;2.63;0.50;;;19.20;99.90;;;;;;4966531;28;20490;-78
2022/10/25 12:31:20;;;;;;;4.80;0.77;;;19.30;99.90;;;;;;4980528;28;20526;-78
2022/10/25 12:34:10;;;;;;;3.92;0.63;;;19.30;99.90;;;;;;4969492;28;20515;-77
2022/10/25 12:36:40;;;;;;;2.72;0.90;;;19.40;99.90;;;;;;4981869;28;20026;-76
2022/10/25 12:39:26;;;;;;;3.50;0.90;;;19.50;99.90;;;;;;4980796;28;20038;-77
2022/10/25 12:42:00;;;;;;;3.50;0.95;;;19.50;99.90;;;;;;4970484;28;20037;-77
2022/10/25 12:45:03;;;;;;;3.35;1.25;;;19.60;99.90;;;;;;4948386;28;20049;-77
2022/10/25 12:47:47;;;;;;;1.95;0.65;;;19.60;99.90;;;;;;4978199;28;20030;-77
2022/10/25 12:50:25;;;;;;;5.03;1.00;;;19.70;99.90;;;;;;4979797;28;20158;-77
2022/10/25 12:53:23;;;;;;;1.63;0.65;;;19.70;99.90;;;;;;4965894;28;20085;-77
2022/10/25 12:55:52;;;;;;;0.30;0.30;;;19.70;99.90;;;;;;4952543;28;20034;-77
2022/10/25 12:58:29;;;;;;;6.00;1.10;;;19.60;99.90;;;;;;4964154;28;20031;-76
2022/10/25 13:01:23;;;;;;;2.20;0.80;;;19.60;99.90;;;;;;4975494;28;20141;-77
2022/10/25 13:04:03;;;;;;;2.67;0.80;;;19.60;99.90;;;;;;4956805;28;20082;-77